Meath Environmental Platform

Observations for Trim Patrick St

Time AQI Temp °C Hum % Pres Pa CO μg/m³ H₂S μg/m³ NO μg/m³ NO₂ μg/m³ O₃ μg/m³ SO₂ μg/m³ PM1 μg/m³ PM2.5 μg/m³ PM10 μg/m³
Friday 28 August 2026
14:21 2 29.3 50 69,290 0 0 1.15 9.31 85.93 13.91 11.43 17.09 18.8
14:20 2 29.4 47 69,306 0 0 0.92 1.47 53.35 14.8 12.29 19.72 21.69
14:19 2 29.6 49 69,339 0 0 0.95 12.45 89.67 13.49 9.71 16.44 18.08
14:18 2 29.7 49 69,322 0 0 0.94 8.19 62.21 14.67 9.71 15.68 17.25
14:17 2 29.8 50 69,324 0 0 0.95 2.8 63.91 14.62 10.57 16.35 17.98
14:15 2 30.1 47 69,341 0 0 0.86 12.42 94.95 13.71 10.57 17.38 19.12
14:13 2 30.3 48 69,316 0 0 0.85 4.97 57.63 15.1 13.14 21.16 23.28
14:12 2 30.3 48 69,343 0 0 0.87 10.73 73.6 14.63 13.14 19.59 21.55
14:11 2 30.3 50 69,349 0 0 0.97 12.27 88.07 13.55 10.57 17.14 18.85
14:07 2 29.8 49 69,420 0 0 0.93 4.83 65.76 14.3 9.71 16.41 18.05
14:06 2 29.7 52 69,448 0 0 1.03 4.95 76.73 15.57 11.43 17.68 19.45
14:05 2 29.6 49 69,450 0 2.11 0.95 12.93 109.55 12.83 11.43 17.93 19.72
14:04 2 29.7 49 69,414 0 0 0.99 10.22 91.1 13.58 12.29 18.69 20.56
14:03 2 29.6 49 69,406 0 0 0.98 2.63 61.01 15.15 13.14 20.23 22.26
14:02 2 29.6 51 69,434 0 0 0.99 10.99 76.52 12.37 10.57 17.02 18.72
14:01 2 29.5 51 69,428 0 0 1.02 3.54 64.41 14.8 11.43 18.57 20.43
14:00 2 29.4 52 69,458 0 0 1.08 7.92 66.25 14.48 12.29 18.4 20.24
13:59 2 29.4 49 69,456 0 0 0.96 9.35 79.85 14.55 10.57 17.18 18.9
13:58 2 29.5 48 69,454 0 0 0.94 12.1 100.27 13.28 10.57 16.48 18.13
13:57 2 29.6 50 69,414 0 0 1.02 1.73 66.07 16.39 13.14 20.12 22.14